x

Ne St Martin - 330 Nm Ne St Martin Is (41044) Wave Buoy

8:50am - Fri 22nd Aug 2014 All times are UTC.

  • Sig Wave height 7.5ft
  • Swell Direction
  • Peak Period 9s
  • Average Period 6s
  • Wind
    18mph, 22mph gusts
  • Sea Temp 83°f
  • Air Temp 82°f
  • Sea Pressure 1016mb

More Historic Weather Station data

Upgrade to MSW Pro to gain access to the past 30 days of data for over 8000 Wavebouys and Weather Stations around the globe.

Join Pro

Comparision Forecast

View Surf forecast
   
Fri 08/22 8:50am 7.5ft 9s 6s 18 22 mph 1016mb 83f 82f
7:50am 7.5ft 9s 6s 20 22 mph 1015.8mb 83f 83f
6:50am 7ft 8s 6s 18 22 mph 1015.8mb 83f 83f
5:50am 7.5ft 8s 6s 20 25 mph 1016.2mb 83f 83f
4:50am 7.5ft 9s 6s 20 22 mph 1016.8mb 83f 83f
3:50am 8.5ft 9s 6s 20 22 mph 1017.4mb 83f 83f
2:50am 8.5ft 9s 6s 22 27 mph 1017.7mb 83f 83f
1:50am 9ft 8s 6s 20 25 mph 1017.7mb 83f 83f
12:50am 8ft 8s 6s 22 27 mph 1017.5mb 83f 83f
Thu 08/21 11:50pm 9ft 9s 6s 25 29 mph 1016.4mb 83f 83f
10:50pm 8ft 8s 6s 22 27 mph 1016.2mb 83f 84f
9:50pm 8.5ft 8s 6s 22 29 mph 1015.6mb 83f 84f
8:50pm 8.5ft 8s 6s 25 29 mph 1015.2mb 83f 84f
7:50pm 8.5ft 8s 6s 22 29 mph 1015.4mb 83f 84f
6:50pm 8ft 8s 6s 25 31 mph 1015.3mb 83f 84f
5:50pm 7.5ft 8s 6s 25 31 mph 1015.8mb 83f 84f
4:50pm 8ft 8s 6s 22 27 mph 1016.4mb 83f 83f
3:50pm 7.5ft 7s 6s 22 27 mph 1017mb 83f 83f
2:50pm 7.5ft 8s 6s 25 31 mph 1017mb 83f 83f
1:50pm 7ft 7s 5s 25 29 mph 1017.4mb 83f 83f
12:50pm 6.5ft 7s 5s 22 27 mph 1017.6mb 83f 83f
11:50am 6ft 7s 5s 22 27 mph 1017.4mb 83f 83f
10:50am 6ft 7s 5s 22 27 mph 1017.3mb 83f 83f
9:50am 5.5ft 7s 5s 25 27 mph 1017mb 83f 83f
8:50am 5ft 7s 5s 22 27 mph 1016.4mb 83f 83f
7:50am 5ft 6s 5s 18 22 mph 1016.2mb 83f 83f
6:50am 5ft 7s 5s 20 22 mph 1016.3mb 83f 83f
5:50am 5ft 6s 5s 18 20 mph 1016.8mb 83f 82f
4:50am 5ft 6s 5s 18 22 mph 1017.5mb 83f 82f
3:50am 5ft 6s 5s 16 18 mph 1018.2mb 83f 80f
2:50am 5ft 6s 5s 18 22 mph 1018.5mb 83f 83f
1:50am 4.5ft 5s 5s 20 22 mph 1018.9mb 83f 83f
12:50am 4.5ft 9s 5s 20 22 mph 1018.6mb 83f 83f
Wed 08/20 11:50pm 4.5ft 5s 5s 18 22 mph 1017.9mb 83f 83f
10:50pm 4ft 5s 5s 20 22 mph 1017.3mb 83f 83f
9:50pm 3.5ft 8s 5s 18 22 mph 1017mb 83f 83f
8:50pm 4ft 9s 5s 18 20 mph 1016.8mb 84f 83f
7:50pm 3.5ft 10s 5s 16 18 mph 1016.9mb 84f 83f
6:50pm 3.5ft 9s 5s 13 16 mph 1016.7mb 84f 83f
5:50pm 3ft 9s 5s 11 13 mph 1017.3mb 84f 83f
4:50pm 3.5ft 9s 5s 11 13 mph 1017.8mb 83f 83f
3:50pm 3.5ft 9s 5s 13 18 mph 1018.1mb 83f 82f
2:50pm 3.5ft 8s 5s 16 18 mph 1018.2mb 83f 83f
1:50pm 4ft 8s 5s 16 18 mph 1018.2mb 83f 83f
12:50pm 4ft 8s 5s 13 16 mph 1018.1mb 83f 82f
11:50am 4ft 5s 5s 13 16 mph 1017.7mb 83f 82f
10:50am 4ft 8s 5s 16 20 mph 1017.1mb 83f 82f
9:50am 4ft 8s 5s 16 18 mph 1016.6mb 83f 82f
8:50am 4ft 9s 5s 16 18 mph 1016.2mb 83f 82f
7:50am 4ft 9s 5s 16 20 mph 1015.9mb 83f 82f
6:50am 3.5ft 9s 5s 16 20 mph 1015.8mb 83f 82f
5:50am 3.5ft 9s 5s 16 18 mph 1016.1mb 83f 82f
4:50am 3.5ft 9s 5s 16 18 mph 1016.4mb 83f 83f
3:50am 3.5ft 5s 5s 16 18 mph 1017mb 83f 83f
2:50am 3.5ft 9s 5s 16 18 mph 1017.6mb 83f 83f
1:50am 3.5ft 9s 5s 16 18 mph 1017.6mb 83f 83f
12:50am 3.5ft 8s 5s 16 18 mph 1017.4mb 83f 83f
Tue 08/19 11:50pm 3.5ft 8s 5s 16 18 mph 1016.9mb 83f 83f
10:50pm 3.5ft 9s 5s 16 18 mph 1016.4mb 83f 83f
9:50pm 3.5ft 9s 5s 16 18 mph 1016.1mb 83f 83f
8:50pm 3.5ft 9s 5s 16 18 mph 1015.7mb 84f 83f
7:50pm 3.5ft 8s 5s 16 18 mph 1015.6mb 84f 83f
6:50pm 3.5ft 9s 5s 13 16 mph 1015.5mb 84f 83f
5:50pm 3.5ft 9s 5s 13 18 mph 1015.9mb 84f 83f
4:50pm 3.5ft 8s 5s 13 16 mph 1016.4mb 84f 83f
3:50pm 3.5ft 9s 5s 13 16 mph 1016.7mb 83f 83f
2:50pm 3.5ft 9s 5s 13 18 mph 1016.7mb 83f 83f
1:50pm 3.5ft 9s 5s 13
mph
1016.8mb 83f 83f
12:50pm 3.5ft 9s 5s 13 16 mph 1016.5mb 83f 83f
11:50am 3.5ft 9s 5s 13 18 mph 1016.3mb 83f 83f
10:50am 3.5ft 9s 5s 13 18 mph 1015.5mb 83f 83f
9:50am 3.5ft 9s 5s 16 18 mph 1014.9mb 83f 82f
8:50am 3.5ft 9s 5s 16 18 mph 1014.4mb 83f 82f
7:50am 3.5ft 10s 5s 16 18 mph 1014.3mb 83f 83f
6:50am 3.5ft 9s 5s 13 16 mph 1014.3mb 83f 83f
5:50am 3.5ft 9s 5s 13 16 mph 1014.5mb 83f 83f
4:50am 3.5ft 10s 5s 13 16 mph 1014.9mb 83f 83f
3:50am 3.5ft 9s 5s 13
mph
1015.6mb 83f 83f
2:50am 3ft 7s 5s 13 16 mph 1016mb 83f 83f
1:50am 3ft 10s 5s 13 16 mph 1016.2mb 83f 83f
12:50am 3.5ft 9s 5s 13
mph
1016mb 83f 83f
Mon 08/18 11:50pm 3ft 7s 5s 11 16 mph 1015.8mb 83f 83f
10:50pm 3ft 8s 5s 9 11 mph 1015.3mb 83f 83f
9:50pm 3ft 9s 5s 11 13 mph 1015mb 84f 83f
8:50pm 3ft 8s 5s 11 13 mph 1014.8mb 84f 83f
7:50pm 3ft 9s 5s 9 11 mph 1014.9mb 84f 83f
6:50pm 3ft 9s 5s 11 13 mph 1014.9mb 84f 83f
5:50pm 3ft 8s 5s 11 13 mph 1015.4mb 84f 83f
4:50pm 3ft 9s 5s 11 13 mph 1016.1mb 84f 83f
3:50pm 3ft 8s 5s 11 13 mph 1016.5mb 84f 83f
2:50pm 3ft 7s 5s 9 11 mph 1017mb 83f 83f
1:50pm 3ft 8s 5s 9
mph
1017.3mb 83f 83f
12:50pm 3ft 8s 5s 11 13 mph 1017.2mb 83f 83f
11:50am 3ft 7s 5s 11 13 mph 1017.1mb 83f 83f
10:50am 3.5ft 9s 5s 9 11 mph 1017mb 83f 83f